KSLE/SLE METAR and TAF weather

Enter ICAO airport designator
Station Type Date Time Source
KSLE METAR 2024/04/18 06:56 UTC NOAA

KSLE 180656Z AUTO 34006KT 10SM CLR 07/M01 A3026 RMK AO2 SLP247 T00721006


Station Type Date Time Source
KSLE Decoded METAR 2024/04/18 06:56 UTC NOAA

SALEM MCNARY FIELD, OR, United States (KSLE) 44-54N 123-00W 59M
Apr 18, 2024 - 02:56 AM EDT / 2024.04.18 0656 UTC
Wind: from the NNW (340 degrees) at 7 MPH (6 KT):0
Visibility: 10 mile(s):0
Sky conditions: clear
Temperature: 45.0 F (7.2 C)
Dew Point: 30.9 F (-0.6 C)
Relative Humidity: 57%
Pressure (altimeter): 30.26 in. Hg (1024 hPa)
ob: KSLE 180656Z AUTO 34006KT 10SM CLR 07/M01 A3026 RMK AO2 SLP247 T00721006
cycle: 7

Station Type Date Time Source
KSLE TAF 2024/04/18 06:22 UTC NOAA